Time;durP1;ratioP1;P1;durP2;ratioP2;P2;SDS_P1;SDS_P2;PMS_P1;PMS_P2;Temp;Humidity;BMP_temperature;BMP_pressure;BME280_temperature;BME280_humidity;BME280_pressure;Samples;Min_cycle;Max_cycle;Signal;HPM_P1;HPM_P2
2022/06/30 00:00:11;;;;;;;17.63;15.93;;;18.00;99.90;;;;;;5036561;28;20546;-63
2022/06/30 00:02:38;;;;;;;15.20;14.00;;;18.00;99.90;;;;;;5036974;28;20521;-63
2022/06/30 00:05:08;;;;;;;18.67;16.90;;;17.90;99.90;;;;;;5035324;28;20570;-64
2022/06/30 00:07:39;;;;;;;18.27;16.67;;;17.90;1.00;;;;;;5037088;28;20504;-63
2022/06/30 00:10:10;;;;;;;16.20;14.73;;;17.90;1.00;;;;;;5036001;28;20498;-64
2022/06/30 00:12:41;;;;;;;17.60;16.00;;;18.00;99.90;;;;;;5036484;28;20459;-64
2022/06/30 00:15:20;;;;;;;17.73;16.03;;;17.90;99.90;;;;;;5036250;28;20462;-63
2022/06/30 00:17:47;;;;;;;17.70;16.10;;;17.90;1.00;;;;;;5037091;28;20462;-64
2022/06/30 00:20:18;;;;;;;19.23;17.50;;;17.80;1.00;;;;;;5036825;28;20459;-63
2022/06/30 00:22:46;;;;;;;17.00;15.63;;;17.80;1.00;;;;;;5036981;28;20477;-63
2022/06/30 00:25:19;;;;;;;20.13;18.23;;;17.80;1.00;;;;;;5036367;28;20473;-63
2022/06/30 00:27:47;;;;;;;18.93;17.27;;;17.70;1.00;;;;;;5037178;28;20437;-64
2022/06/30 00:30:14;;;;;;;18.10;16.50;;;17.70;1.00;;;;;;5036736;28;20501;-63
2022/06/30 00:32:41;;;;;;;17.93;16.27;;;17.70;1.00;;;;;;5036628;28;20485;-63
2022/06/30 00:35:10;;;;;;;18.10;16.50;;;17.50;1.00;;;;;;5036931;28;20437;-64
2022/06/30 00:37:43;;;;;;;18.07;16.50;;;17.50;99.90;;;;;;5036438;28;20545;-63
2022/06/30 00:40:11;;;;;;;18.33;16.63;;;17.60;1.00;;;;;;5039186;28;20459;-63
2022/06/30 00:42:38;;;;;;;18.50;16.57;;;17.60;1.00;;;;;;5040171;28;20553;-63
2022/06/30 00:45:06;;;;;;;18.43;16.80;;;17.50;1.00;;;;;;5040762;28;20557;-63
2022/06/30 00:47:34;;;;;;;17.37;15.90;;;17.40;1.00;;;;;;5040405;28;20459;-63
2022/06/30 00:50:03;;;;;;;17.93;16.23;;;17.40;1.00;;;;;;5040464;28;20495;-63
2022/06/30 00:52:34;;;;;;;19.10;17.40;;;17.30;1.00;;;;;;5039295;28;20462;-63
2022/06/30 00:55:05;;;;;;;19.27;17.47;;;17.40;1.00;;;;;;5040365;28;20561;-63
2022/06/30 00:57:35;;;;;;;16.47;15.07;;;17.40;1.00;;;;;;5039684;28;20490;-63
2022/06/30 01:00:05;;;;;;;17.57;15.97;;;17.30;1.00;;;;;;5039884;28;20459;-63
2022/06/30 01:02:35;;;;;;;18.20;16.60;;;17.20;1.00;;;;;;5039944;28;20493;-63
2022/06/30 01:05:02;;;;;;;19.17;17.67;;;17.30;1.00;;;;;;5039927;28;20516;-61
2022/06/30 01:07:31;;;;;;;18.93;17.07;;;17.20;1.00;;;;;;5040241;28;20517;-61
2022/06/30 01:12:50;;;;;;;18.47;16.87;;;17.20;1.00;;;;;;5039653;28;20442;-61
2022/06/30 01:18:39;;;;;;;18.80;17.30;;;17.10;1.00;;;;;;5039184;28;20881;-61
2022/06/30 01:21:10;;;;;;;18.10;16.50;;;17.10;99.90;;;;;;5039754;28;20463;-61
2022/06/30 01:23:39;;;;;;;18.00;16.30;;;17.00;99.90;;;;;;5039933;28;20914;-61
2022/06/30 01:26:09;;;;;;;18.80;16.90;;;17.00;99.90;;;;;;5039578;28;20493;-61
2022/06/30 01:28:38;;;;;;;17.87;16.33;;;16.90;99.90;;;;;;5039564;28;20909;-61
2022/06/30 01:31:09;;;;;;;19.00;17.20;;;17.00;1.00;;;;;;5039606;28;20756;-61
2022/06/30 01:33:36;;;;;;;18.10;16.53;;;17.00;99.90;;;;;;5039688;28;20467;-61
2022/06/30 01:36:04;;;;;;;18.30;16.70;;;17.00;99.90;;;;;;5039337;28;20781;-61
2022/06/30 01:41:16;;;;;;;18.50;16.80;;;17.00;99.90;;;;;;5039280;28;20467;-63
2022/06/30 01:43:46;;;;;;;18.10;16.53;;;16.90;1.00;;;;;;5038402;28;20467;-63
2022/06/30 01:46:20;;;;;;;19.87;18.10;;;16.90;99.90;;;;;;5039129;28;20466;-64
2022/06/30 01:48:47;;;;;;;18.60;17.00;;;16.90;99.90;;;;;;5039273;28;20494;-63
2022/06/30 01:51:15;;;;;;;18.40;16.80;;;17.00;99.90;;;;;;5038813;28;20470;-63
2022/06/30 01:53:42;;;;;;;19.87;18.00;;;16.90;99.90;;;;;;5039460;28;20470;-64
2022/06/30 01:56:12;;;;;;;18.97;17.17;;;16.90;99.90;;;;;;5038501;28;20558;-63
2022/06/30 01:58:40;;;;;;;19.67;17.83;;;16.90;99.90;;;;;;5038864;28;20940;-63
2022/06/30 02:01:13;;;;;;;20.97;19.27;;;16.80;99.90;;;;;;5038851;28;20470;-63
2022/06/30 02:03:40;;;;;;;18.60;17.00;;;16.80;99.90;;;;;;5039225;28;20470;-63
2022/06/30 02:06:08;;;;;;;19.67;17.80;;;16.70;99.90;;;;;;5038731;28;20753;-64
2022/06/30 02:08:35;;;;;;;20.83;18.93;;;16.60;99.90;;;;;;5038558;28;20474;-63
2022/06/30 02:11:02;;;;;;;19.90;18.10;;;16.70;1.00;;;;;;5038683;28;20442;-64
2022/06/30 02:13:29;;;;;;;21.00;18.97;;;16.60;1.00;;;;;;5038373;28;20438;-63
2022/06/30 02:15:58;;;;;;;22.10;20.20;;;16.60;1.00;;;;;;5038674;28;20469;-63
2022/06/30 02:18:25;;;;;;;20.03;18.27;;;16.60;99.90;;;;;;5038307;28;20464;-63
2022/06/30 02:20:53;;;;;;;19.57;17.83;;;16.50;99.90;;;;;;5038587;28;20509;-63
2022/06/30 02:23:20;;;;;;;20.10;18.30;;;16.50;1.00;;;;;;5038558;28;20448;-64
2022/06/30 02:25:47;;;;;;;20.90;19.00;;;16.40;99.90;;;;;;5038871;28;20935;-63
2022/06/30 02:28:21;;;;;;;20.83;19.03;;;16.40;1.00;;;;;;5038139;28;20474;-63
2022/06/30 02:30:52;;;;;;;20.63;18.93;;;16.40;99.90;;;;;;5037250;28;20469;-63
2022/06/30 02:33:21;;;;;;;20.30;18.50;;;16.50;99.90;;;;;;5037947;28;20440;-63
2022/06/30 02:35:50;;;;;;;20.23;18.40;;;16.50;99.90;;;;;;5038432;28;20462;-63
2022/06/30 02:38:19;;;;;;;22.40;20.47;;;16.50;37.10;;;;;;5038110;28;20489;-63
2022/06/30 02:40:46;;;;;;;22.63;20.53;;;16.50;1.00;;;;;;5038556;28;20821;-64
2022/06/30 02:43:17;;;;;;;22.20;20.20;;;16.40;99.90;;;;;;5037133;28;20782;-63
2022/06/30 02:45:44;;;;;;;19.23;17.53;;;16.50;99.90;;;;;;5036786;28;20502;-63
2022/06/30 02:48:11;;;;;;;21.27;19.37;;;16.50;99.90;;;;;;5037141;28;20448;-63
2022/06/30 02:50:44;;;;;;;21.70;19.90;;;16.50;1.00;;;;;;5037695;28;20501;-64
2022/06/30 02:53:12;;;;;;;22.33;20.30;;;16.40;1.00;;;;;;5037509;28;20467;-64
2022/06/30 02:55:39;;;;;;;23.20;21.20;;;16.50;99.90;;;;;;5038276;28;20470;-64
2022/06/30 02:58:06;;;;;;;22.00;20.00;;;16.50;1.00;;;;;;5037433;28;20526;-63
2022/06/30 03:00:34;;;;;;;22.50;20.50;;;16.50;99.90;;;;;;5036536;28;20455;-64
2022/06/30 03:03:01;;;;;;;23.70;21.47;;;16.50;1.00;;;;;;5037422;28;20562;-63
2022/06/30 03:05:31;;;;;;;24.47;22.27;;;16.60;99.90;;;;;;5037552;28;20469;-63
2022/06/30 03:08:00;;;;;;;22.97;20.97;;;16.60;99.90;;;;;;5037356;28;20470;-63
2022/06/30 03:10:27;;;;;;;21.50;19.43;;;16.70;1.00;;;;;;5037171;28;20498;-63
2022/06/30 03:12:54;;;;;;;23.90;21.77;;;16.70;1.00;;;;;;5037654;28;20463;-63
2022/06/30 03:15:22;;;;;;;22.53;20.67;;;16.60;1.00;;;;;;5037849;28;20919;-64
2022/06/30 03:17:51;;;;;;;21.47;19.67;;;16.70;1.00;;;;;;5037677;28;20459;-63
2022/06/30 03:20:18;;;;;;;20.53;18.80;;;16.60;99.90;;;;;;5035918;28;20467;-63
2022/06/30 03:22:47;;;;;;;21.00;19.10;;;16.70;1.00;;;;;;5037135;28;20459;-64
2022/06/30 03:25:16;;;;;;;22.77;20.80;;;16.70;99.90;;;;;;5037680;28;20470;-63
2022/06/30 03:27:48;;;;;;;21.47;19.67;;;16.70;99.90;;;;;;5037527;28;20464;-63
2022/06/30 03:30:16;;;;;;;21.60;19.80;;;16.70;99.90;;;;;;5037157;28;20495;-63
2022/06/30 03:32:43;;;;;;;21.57;19.67;;;16.70;1.00;;;;;;5037158;28;20549;-63
2022/06/30 03:35:10;;;;;;;22.73;20.63;;;16.60;99.90;;;;;;5037370;28;20554;-63
2022/06/30 03:37:37;;;;;;;22.13;20.13;;;16.70;99.90;;;;;;5037500;28;20463;-63
2022/06/30 03:40:08;;;;;;;21.87;20.07;;;16.70;99.90;;;;;;5037050;28;20467;-63
2022/06/30 03:42:42;;;;;;;21.20;19.40;;;16.60;99.90;;;;;;5036758;28;20517;-64
2022/06/30 03:45:10;;;;;;;22.63;20.70;;;16.70;1.00;;;;;;5037445;28;20466;-64
2022/06/30 03:47:40;;;;;;;22.30;20.40;;;16.70;1.00;;;;;;5037252;28;20460;-63
2022/06/30 03:50:10;;;;;;;22.27;20.27;;;16.70;99.90;;;;;;5036740;28;20789;-64
2022/06/30 03:52:37;;;;;;;24.33;22.07;;;16.70;99.90;;;;;;5036835;28;20467;-63
2022/06/30 03:55:05;;;;;;;21.90;19.73;;;16.70;99.90;;;;;;5037181;28;20446;-64
2022/06/30 03:57:32;;;;;;;22.80;20.70;;;16.80;99.90;;;;;;5036758;28;20469;-64
2022/06/30 04:00:02;;;;;;;24.33;21.97;;;16.80;99.90;;;;;;5037291;28;20463;-64
2022/06/30 04:02:29;;;;;;;21.80;19.83;;;16.90;99.90;;;;;;5036903;28;20463;-64
2022/06/30 04:04:57;;;;;;;23.50;21.30;;;16.80;99.90;;;;;;5036989;28;20490;-64
2022/06/30 04:07:24;;;;;;;23.37;21.37;;;16.90;98.40;;;;;;5037147;28;20467;-64
2022/06/30 04:09:53;;;;;;;24.03;21.97;;;17.00;93.30;;;;;;5037133;28;20530;-63
2022/06/30 04:12:21;;;;;;;22.63;20.43;;;17.00;68.10;;;;;;5037338;28;20459;-64
2022/06/30 04:14:48;;;;;;;23.97;21.97;;;17.10;99.90;;;;;;5039248;28;20473;-64
2022/06/30 04:17:17;;;;;;;22.90;20.90;;;17.10;99.90;;;;;;5041026;28;20868;-64
2022/06/30 04:19:44;;;;;;;23.73;21.63;;;17.10;99.90;;;;;;5041167;28;20494;-64
2022/06/30 04:22:11;;;;;;;23.23;21.23;;;17.10;13.80;;;;;;5040374;28;20444;-64
2022/06/30 04:24:41;;;;;;;24.60;22.00;;;17.10;1.00;;;;;;5040846;28;20558;-64
2022/06/30 04:27:13;;;;;;;24.37;22.37;;;17.10;99.90;;;;;;5041015;28;20463;-64
2022/06/30 04:29:41;;;;;;;23.67;21.67;;;17.10;99.90;;;;;;5040664;28;20494;-64
2022/06/30 04:34:57;;;;;;;23.77;21.63;;;17.20;99.90;;;;;;5040289;28;20493;-64
2022/06/30 04:37:24;;;;;;;24.30;22.20;;;17.20;99.90;;;;;;5040765;28;20467;-64
2022/06/30 04:41:23;;;;;;;23.37;21.37;;;17.30;99.90;;;;;;5040633;28;20951;-64
2022/06/30 04:42:38;;;;;;;22.23;20.23;;;17.40;99.90;;;;;;5040163;28;20458;-64
2022/06/30 04:45:08;;;;;;;30.83;22.90;;;17.50;99.90;;;;;;5040044;28;20455;-63
2022/06/30 04:47:36;;;;;;;24.13;21.93;;;17.60;99.90;;;;;;5040421;28;20751;-63
2022/06/30 04:50:05;;;;;;;24.57;22.37;;;17.60;99.90;;;;;;5039909;28;20954;-63
2022/06/30 04:52:33;;;;;;;24.93;22.63;;;17.70;99.90;;;;;;5039175;28;20470;-63
2022/06/30 04:55:00;;;;;;;21.87;19.87;;;17.80;99.90;;;;;;5040217;28;20751;-63
2022/06/30 04:57:32;;;;;;;23.20;21.20;;;18.00;42.10;;;;;;5039743;28;20597;-63
2022/06/30 04:59:59;;;;;;;23.37;21.23;;;18.00;1.00;;;;;;5039999;28;20465;-63
2022/06/30 05:02:29;;;;;;;24.43;22.03;;;18.10;1.00;;;;;;5039743;28;20459;-63
2022/06/30 05:04:56;;;;;;;21.77;19.93;;;18.30;99.90;;;;;;5039819;28;20438;-63
2022/06/30 05:07:25;;;;;;;24.20;22.10;;;18.40;58.40;;;;;;5040024;28;20473;-63
2022/06/30 05:09:55;;;;;;;24.37;22.23;;;18.50;99.90;;;;;;5039328;28;20497;-63
2022/06/30 05:12:22;;;;;;;22.73;20.73;;;18.60;1.00;;;;;;5039592;28;20558;-63
2022/06/30 05:14:51;;;;;;;21.70;19.90;;;18.60;99.90;;;;;;5039597;28;20442;-63
2022/06/30 05:17:18;;;;;;;22.70;20.80;;;18.70;1.00;;;;;;5039856;28;20756;-63
2022/06/30 05:19:45;;;;;;;21.30;19.30;;;18.80;99.90;;;;;;5039399;28;20463;-63
2022/06/30 05:22:13;;;;;;;23.27;21.37;;;18.90;99.90;;;;;;5039612;28;20910;-63
2022/06/30 05:27:29;;;;;;;21.47;19.57;;;19.10;99.90;;;;;;5037842;28;20593;-64
2022/06/30 05:29:56;;;;;;;20.00;18.20;;;19.30;4.40;;;;;;5038064;28;20475;-63
2022/06/30 05:32:27;;;;;;;20.27;18.57;;;19.40;1.00;;;;;;5039398;28;20980;-63
2022/06/30 05:34:54;;;;;;;22.67;20.77;;;19.60;1.00;;;;;;5039505;28;20517;-62
2022/06/30 05:37:21;;;;;;;21.73;19.83;;;19.70;99.90;;;;;;5039515;28;20464;-62
2022/06/30 05:39:51;;;;;;;21.37;19.67;;;19.90;99.90;;;;;;5037792;28;20459;-62
2022/06/30 05:42:18;;;;;;;19.80;17.97;;;20.10;1.00;;;;;;5038975;28;20463;-62
2022/06/30 05:44:46;;;;;;;17.73;15.90;;;20.30;99.90;;;;;;5039216;28;20438;-62
2022/06/30 05:47:18;;;;;;;18.57;17.03;;;20.50;99.90;;;;;;5039481;28;20446;-62
2022/06/30 05:49:45;;;;;;;18.17;16.67;;;20.70;1.00;;;;;;5039408;28;20532;-62
2022/06/30 05:52:15;;;;;;;19.37;17.50;;;21.00;1.00;;;;;;5039090;28;20761;-62
2022/06/30 05:54:43;;;;;;;18.00;16.30;;;21.10;1.00;;;;;;5039128;28;20562;-60
2022/06/30 05:57:11;;;;;;;17.80;16.20;;;21.50;1.00;;;;;;5038522;28;21014;-60
2022/06/30 05:59:39;;;;;;;17.70;16.10;;;21.70;1.00;;;;;;5039035;28;20558;-61
2022/06/30 06:02:06;;;;;;;17.40;15.90;;;22.00;1.00;;;;;;5038603;28;20884;-61
2022/06/30 06:04:34;;;;;;;17.17;15.50;;;22.30;1.00;;;;;;5038658;28;20467;-61
2022/06/30 06:07:03;;;;;;;16.87;15.47;;;22.50;1.00;;;;;;5038871;28;20467;-61
2022/06/30 06:09:31;;;;;;;15.90;14.67;;;22.80;1.00;;;;;;5038832;28;20470;-60
2022/06/30 06:11:59;;;;;;;17.53;16.03;;;23.10;1.00;;;;;;5038419;28;20495;-61
2022/06/30 06:14:29;;;;;;;16.50;15.07;;;23.40;1.00;;;;;;5038636;28;20473;-60
2022/06/30 06:16:56;;;;;;;14.97;13.87;;;23.50;1.00;;;;;;5038921;28;20858;-60
2022/06/30 06:19:28;;;;;;;17.37;15.60;;;23.70;1.00;;;;;;5038679;28;20469;-60
2022/06/30 06:21:56;;;;;;;14.70;13.50;;;24.10;1.00;;;;;;5037977;28;20494;-60
2022/06/30 06:24:23;;;;;;;15.07;13.70;;;24.40;1.00;;;;;;5038355;28;20495;-60
2022/06/30 06:26:51;;;;;;;15.43;14.13;;;24.70;99.90;;;;;;5038541;28;20473;-61
2022/06/30 06:29:21;;;;;;;15.07;13.80;;;25.00;99.90;;;;;;5038596;28;20466;-61
2022/06/30 06:31:50;;;;;;;14.33;13.33;;;25.20;99.90;;;;;;5038836;28;20487;-61
2022/06/30 06:34:20;;;;;;;14.47;13.27;;;25.40;99.90;;;;;;5037805;28;20467;-61
2022/06/30 06:36:47;;;;;;;14.40;13.30;;;25.60;99.90;;;;;;5037986;28;20471;-62
2022/06/30 06:39:14;;;;;;;14.17;12.93;;;25.90;99.90;;;;;;5038230;28;20437;-61
2022/06/30 06:41:46;;;;;;;13.43;12.13;;;26.10;99.90;;;;;;5038601;28;20474;-62
2022/06/30 06:44:14;;;;;;;13.67;12.57;;;26.20;99.90;;;;;;5042836;28;20715;-62
2022/06/30 06:46:44;;;;;;;12.60;11.60;;;26.50;99.90;;;;;;5047124;28;20468;-62
2022/06/30 06:49:12;;;;;;;14.23;12.83;;;26.60;99.90;;;;;;5047526;28;20485;-62
2022/06/30 06:51:40;;;;;;;14.90;13.50;;;26.80;99.90;;;;;;5042997;28;20574;-62
2022/06/30 06:54:09;;;;;;;14.50;13.37;;;26.80;99.90;;;;;;5045564;28;20454;-62
2022/06/30 06:56:38;;;;;;;13.80;12.70;;;27.10;99.90;;;;;;5045843;28;20462;-62
2022/06/30 06:59:10;;;;;;;12.90;11.90;;;27.40;99.90;;;;;;5046489;28;20455;-62
2022/06/30 07:01:38;;;;;;;13.27;12.27;;;27.60;99.90;;;;;;5041483;28;20474;-62
2022/06/30 07:04:08;;;;;;;13.70;12.70;;;27.80;99.90;;;;;;5046523;28;20532;-62
2022/06/30 07:06:43;;;;;;;13.80;12.70;;;28.20;99.90;;;;;;5046421;28;20490;-63
2022/06/30 07:09:13;;;;;;;11.03;10.03;;;28.30;99.90;;;;;;5052965;28;20453;-63
2022/06/30 07:11:40;;;;;;;11.60;10.60;;;28.40;99.90;;;;;;5057399;28;20497;-64
2022/06/30 07:14:09;;;;;;;10.30;9.47;;;28.60;99.90;;;;;;5056747;28;20470;-63
2022/06/30 07:16:36;;;;;;;10.93;10.13;;;28.80;99.90;;;;;;5057089;28;20470;-64
2022/06/30 07:19:03;;;;;;;10.03;9.03;;;28.70;99.90;;;;;;5057128;28;20910;-64
2022/06/30 07:21:30;;;;;;;8.90;8.00;;;28.70;99.90;;;;;;5054752;28;20446;-63
2022/06/30 07:23:59;;;;;;;8.93;8.33;;;28.90;99.90;;;;;;5045395;28;20462;-63
2022/06/30 07:26:26;;;;;;;9.10;8.33;;;29.00;99.90;;;;;;5046792;28;20450;-64
2022/06/30 07:29:04;;;;;;;9.03;8.30;;;29.10;99.90;;;;;;5043595;28;20564;-64
2022/06/30 07:31:34;;;;;;;8.87;8.27;;;29.20;99.90;;;;;;5042453;28;20482;-64
2022/06/30 07:34:04;;;;;;;7.67;7.00;;;29.30;99.90;;;;;;5045057;28;20519;-63
2022/06/30 07:36:31;;;;;;;7.73;7.03;;;29.40;99.90;;;;;;5040329;28;20487;-63
2022/06/30 07:39:01;;;;;;;8.30;7.60;;;29.60;99.90;;;;;;5042950;28;20901;-64
2022/06/30 07:41:36;;;;;;;7.87;7.17;;;29.80;99.90;;;;;;5047122;28;20940;-63
2022/06/30 07:44:03;;;;;;;7.70;7.10;;;29.50;99.90;;;;;;5046283;28;20463;-63
2022/06/30 07:46:36;;;;;;;7.53;6.90;;;29.60;99.90;;;;;;5051759;28;20462;-63
2022/06/30 07:49:05;;;;;;;7.00;6.50;;;30.00;99.90;;;;;;5056165;28;20466;-63
2022/06/30 07:51:32;;;;;;;6.50;6.00;;;30.00;99.90;;;;;;5057271;28;20494;-63
2022/06/30 07:54:01;;;;;;;8.80;5.30;;;30.20;99.90;;;;;;5057245;28;20540;-63
2022/06/30 07:56:30;;;;;;;6.90;6.27;;;30.30;99.90;;;;;;5056360;28;20476;-64
2022/06/30 07:58:59;;;;;;;7.43;6.83;;;30.60;99.90;;;;;;5017547;28;20433;-63
2022/06/30 08:01:28;;;;;;;6.97;6.37;;;30.60;99.90;;;;;;5017316;28;20499;-63
2022/06/30 08:03:57;;;;;;;8.93;6.20;;;30.70;99.90;;;;;;5016855;28;20758;-63
2022/06/30 08:06:29;;;;;;;11.03;6.53;;;30.80;99.90;;;;;;5016837;28;20456;-63
2022/06/30 08:08:58;;;;;;;5.90;5.30;;;30.80;99.90;;;;;;5017152;28;20459;-63
2022/06/30 08:11:29;;;;;;;14.23;7.90;;;30.70;99.90;;;;;;5017072;28;20586;-64
2022/06/30 08:13:56;;;;;;;15.37;8.40;;;31.10;99.90;;;;;;5016720;28;20470;-63
2022/06/30 08:16:25;;;;;;;8.20;7.33;;;31.60;99.90;;;;;;5017161;28;20482;-63
2022/06/30 08:18:55;;;;;;;5.10;4.70;;;31.80;99.90;;;;;;5017017;28;20499;-63
2022/06/30 08:21:23;;;;;;;11.60;7.13;;;32.20;99.90;;;;;;5006144;28;20766;-63
2022/06/30 08:23:52;;;;;;;6.50;6.00;;;31.80;99.90;;;;;;4996818;28;20442;-63
2022/06/30 08:26:19;;;;;;;6.33;5.83;;;31.50;99.90;;;;;;4996746;28;20464;-63
2022/06/30 08:28:51;;;;;;;6.07;5.47;;;31.70;99.90;;;;;;4997521;28;20754;-63
2022/06/30 08:31:39;;;;;;;6.67;6.00;;;32.00;99.90;;;;;;4995851;28;20945;-64
2022/06/30 08:34:06;;;;;;;14.90;6.33;;;31.70;99.90;;;;;;4997010;28;20469;-63
2022/06/30 08:36:38;;;;;;;5.57;5.03;;;32.10;99.90;;;;;;4996612;28;20470;-63
2022/06/30 08:42:02;;;;;;;7.03;6.33;;;32.50;99.90;;;;;;4996867;28;20503;-63
2022/06/30 08:42:05;;;;;;;8.10;6.90;;;32.80;99.90;;;;;;4997087;28;20882;-63
2022/06/30 08:44:38;;;;;;;5.63;5.13;;;31.70;99.90;;;;;;4996880;28;20463;-64
2022/06/30 08:47:08;;;;;;;5.90;5.40;;;31.70;99.90;;;;;;4997119;28;20464;-64
2022/06/30 08:49:36;;;;;;;7.80;5.50;;;32.20;99.90;;;;;;4997370;28;20792;-63
2022/06/30 08:52:06;;;;;;;72.90;17.47;;;32.40;99.90;;;;;;4997349;28;20827;-63
2022/06/30 08:54:38;;;;;;;34.87;10.50;;;31.80;99.90;;;;;;4997137;28;20464;-63
2022/06/30 08:57:09;;;;;;;14.90;7.00;;;31.60;99.90;;;;;;5005100;28;20830;-64
2022/06/30 08:59:40;;;;;;;6.00;5.40;;;32.20;99.90;;;;;;5036879;28;20462;-64
2022/06/30 09:02:11;;;;;;;7.33;5.63;;;32.60;99.90;;;;;;5039540;28;20465;-64
2022/06/30 09:04:38;;;;;;;7.40;5.97;;;32.30;99.90;;;;;;5039422;28;20887;-64
2022/06/30 09:07:06;;;;;;;5.53;5.03;;;32.30;99.90;;;;;;5039310;28;20934;-64
2022/06/30 09:09:35;;;;;;;5.47;4.90;;;32.80;99.90;;;;;;5038627;28;20556;-64
2022/06/30 09:12:02;;;;;;;5.60;5.20;;;33.10;99.90;;;;;;5039196;28;20536;-64
2022/06/30 09:14:39;;;;;;;6.10;5.60;;;33.50;99.90;;;;;;5039192;28;20466;-64
2022/06/30 09:17:09;;;;;;;8.63;5.90;;;33.40;99.90;;;;;;5035691;28;20521;-64
2022/06/30 09:19:40;;;;;;;6.43;5.93;;;32.80;99.90;;;;;;5037632;28;20887;-64
2022/06/30 09:22:14;;;;;;;6.10;5.60;;;33.50;99.90;;;;;;5038600;28;20469;-64
2022/06/30 09:24:44;;;;;;;6.50;5.90;;;33.70;99.90;;;;;;5038074;28;20502;-64
2022/06/30 09:27:19;;;;;;;7.13;6.50;;;33.50;99.90;;;;;;5038318;28;20469;-64
2022/06/30 09:29:54;;;;;;;7.40;6.33;;;33.30;99.90;;;;;;5039665;28;21112;-64
2022/06/30 09:32:23;;;;;;;6.30;5.80;;;33.40;99.90;;;;;;5046661;28;20486;-64
2022/06/30 09:34:53;;;;;;;8.07;5.67;;;33.70;99.90;;;;;;5047545;28;20457;-64
2022/06/30 09:37:22;;;;;;;5.63;5.13;;;34.10;99.90;;;;;;5049906;28;20471;-64
2022/06/30 09:39:54;;;;;;;7.03;5.80;;;33.20;99.90;;;;;;5059813;28;20752;-64
2022/06/30 09:42:41;;;;;;;6.90;5.37;;;33.60;99.90;;;;;;5059076;28;20461;-64
2022/06/30 09:45:16;;;;;;;5.50;5.00;;;33.20;99.90;;;;;;5059407;28;20464;-65
2022/06/30 09:47:54;;;;;;;7.00;5.23;;;34.00;99.90;;;;;;5057614;28;20440;-65
2022/06/30 09:50:22;;;;;;;7.03;5.47;;;34.10;99.90;;;;;;5036636;28;20475;-65
2022/06/30 09:53:05;;;;;;;6.77;6.10;;;33.40;99.90;;;;;;5032239;28;20469;-64
2022/06/30 09:55:44;;;;;;;6.27;5.67;;;33.10;99.90;;;;;;5036685;28;20471;-65
2022/06/30 09:58:13;;;;;;;14.47;8.80;;;32.50;99.90;;;;;;5037506;28;20496;-64
2022/06/30 10:00:50;;;;;;;4.90;4.50;;;31.20;99.90;;;;;;5038553;28;20733;-64
2022/06/30 10:03:18;;;;;;;5.57;5.07;;;31.40;99.90;;;;;;5037746;28;20494;-64
2022/06/30 10:05:53;;;;;;;8.60;4.53;;;31.20;99.90;;;;;;5039208;28;20742;-63
2022/06/30 10:08:27;;;;;;;5.40;4.90;;;31.00;99.90;;;;;;5038667;28;20547;-64
2022/06/30 10:10:56;;;;;;;9.50;4.23;;;30.80;99.90;;;;;;5037805;28;20756;-63
2022/06/30 10:13:26;;;;;;;4.90;4.50;;;30.40;99.90;;;;;;5038972;28;20495;-64
2022/06/30 10:15:58;;;;;;;4.10;3.57;;;30.30;99.90;;;;;;5051907;28;20467;-65
2022/06/30 10:18:29;;;;;;;5.00;4.60;;;30.50;99.90;;;;;;5057494;28;20934;-64
2022/06/30 10:20:58;;;;;;;4.80;4.40;;;30.50;99.90;;;;;;5057339;28;20497;-64
2022/06/30 10:23:26;;;;;;;5.60;4.97;;;30.30;99.90;;;;;;5047319;28;20457;-64
2022/06/30 10:25:57;;;;;;;4.67;4.27;;;30.90;99.90;;;;;;5037908;28;20471;-64
2022/06/30 10:28:29;;;;;;;3.70;3.40;;;32.10;99.90;;;;;;5038232;28;20489;-64
2022/06/30 10:31:09;;;;;;;4.00;3.60;;;33.10;99.90;;;;;;5038346;28;20753;-64
2022/06/30 10:33:52;;;;;;;5.40;4.70;;;33.30;99.90;;;;;;5036721;28;20490;-64
2022/06/30 10:36:25;;;;;;;5.13;4.40;;;34.20;99.90;;;;;;5037780;28;20429;-65
2022/06/30 10:38:59;;;;;;;3.60;3.40;;;34.50;99.90;;;;;;5039073;28;20474;-64
2022/06/30 10:41:28;;;;;;;5.17;4.67;;;34.70;99.90;;;;;;5039255;28;20513;-65
2022/06/30 10:44:16;;;;;;;4.60;4.20;;;33.90;99.90;;;;;;5045829;28;20987;-65
2022/06/30 10:47:10;;;;;;;3.90;3.60;;;34.60;99.90;;;;;;5045376;28;20909;-64
2022/06/30 10:50:01;;;;;;;4.10;3.70;;;34.20;99.90;;;;;;5043762;28;20469;-64
2022/06/30 10:52:32;;;;;;;4.83;4.40;;;33.80;99.90;;;;;;5047313;28;20489;-64
2022/06/30 10:55:09;;;;;;;3.77;3.47;;;33.10;99.90;;;;;;5047707;28;20461;-64
2022/06/30 10:57:59;;;;;;;3.83;3.57;;;32.40;99.90;;;;;;5045086;28;20547;-64
2022/06/30 11:00:47;;;;;;;4.40;3.67;;;32.80;99.90;;;;;;5045588;28;20754;-64
2022/06/30 11:07:02;;;;;;;6.40;4.47;;;34.10;99.90;;;;;;5026346;28;20414;-64
2022/06/30 11:10:05;;;;;;;5.80;3.57;;;35.00;99.90;;;;;;5037910;28;20549;-64
2022/06/30 11:12:57;;;;;;;7.60;5.70;;;36.00;99.90;;;;;;5038873;28;20490;-64
2022/06/30 11:15:52;;;;;;;5.30;4.10;;;36.50;99.90;;;;;;5042525;28;20460;-65
2022/06/30 11:18:21;;;;;;;7.50;3.95;;;36.60;99.90;;;;;;5032375;28;20245;-64
2022/06/30 11:20:58;;;;;;;4.50;4.10;;;36.20;99.90;;;;;;5033980;28;20290;-64
2022/06/30 11:23:39;;;;;;;4.57;4.13;;;36.10;99.90;;;;;;5033361;28;20314;-64
2022/06/30 11:29:04;;;;;;;4.87;3.87;;;32.90;99.90;;;;;;4995538;28;20196;-63
2022/06/30 11:31:33;;;;;;;4.97;4.47;;;32.00;99.90;;;;;;5037512;28;20469;-64
2022/06/30 11:34:04;;;;;;;5.27;3.60;;;31.90;99.90;;;;;;5037125;28;20504;-64
2022/06/30 11:36:32;;;;;;;4.00;3.70;;;32.40;99.90;;;;;;5036695;28;20444;-63
2022/06/30 11:39:02;;;;;;;3.73;3.43;;;31.60;99.90;;;;;;5050554;28;20765;-63
2022/06/30 11:44:22;;;;;;;4.37;4.07;;;30.60;99.90;;;;;;5043032;28;20438;-64
2022/06/30 11:46:55;;;;;;;4.03;3.73;;;31.30;99.90;;;;;;5037336;28;20458;-64
2022/06/30 11:49:23;;;;;;;4.50;4.07;;;31.80;99.90;;;;;;5036708;28;20462;-64
2022/06/30 11:51:50;;;;;;;4.00;3.60;;;31.60;99.90;;;;;;5037143;28;20458;-64
2022/06/30 11:54:27;;;;;;;25.00;11.27;;;32.60;99.90;;;;;;5036574;28;20458;-63
2022/06/30 11:57:01;;;;;;;10.33;4.70;;;31.90;99.90;;;;;;5036099;28;20758;-64
2022/06/30 11:59:31;;;;;;;4.13;3.73;;;31.70;99.90;;;;;;5037101;28;20836;-64
2022/06/30 12:02:07;;;;;;;3.90;3.57;;;31.50;99.90;;;;;;5036879;28;20841;-64
2022/06/30 12:04:38;;;;;;;6.93;4.63;;;31.30;99.90;;;;;;5036471;28;20466;-64
2022/06/30 12:07:06;;;;;;;10.33;4.07;;;32.30;99.90;;;;;;5037254;28;20906;-64
2022/06/30 12:09:35;;;;;;;7.30;4.03;;;32.30;99.90;;;;;;5037192;28;20564;-64
2022/06/30 12:12:06;;;;;;;4.70;4.07;;;32.80;99.90;;;;;;5044162;28;20466;-64
2022/06/30 12:14:38;;;;;;;3.67;3.37;;;32.70;99.90;;;;;;5056779;28;20468;-64
2022/06/30 12:17:11;;;;;;;4.27;3.97;;;33.00;99.90;;;;;;5037338;28;20784;-64
2022/06/30 12:19:41;;;;;;;4.00;3.70;;;33.00;99.90;;;;;;5037268;28;20520;-64
2022/06/30 12:22:09;;;;;;;4.40;4.00;;;32.90;99.90;;;;;;5038830;28;20493;-64
2022/06/30 12:24:42;;;;;;;6.50;4.80;;;32.60;99.90;;;;;;5043444;28;20463;-63
2022/06/30 12:27:09;;;;;;;4.47;4.10;;;32.30;99.90;;;;;;5036852;28;20462;-64
2022/06/30 12:29:36;;;;;;;4.67;4.37;;;32.30;99.90;;;;;;5036917;28;20463;-63
2022/06/30 12:32:10;;;;;;;4.63;4.33;;;32.70;99.90;;;;;;5036379;28;20516;-63
2022/06/30 12:34:50;;;;;;;4.50;4.20;;;32.60;99.90;;;;;;5036768;28;20481;-64
2022/06/30 12:37:27;;;;;;;4.80;4.40;;;33.00;99.90;;;;;;5040576;28;20462;-64
2022/06/30 12:39:58;;;;;;;4.40;4.00;;;32.60;99.90;;;;;;5040264;28;20437;-63
2022/06/30 12:42:27;;;;;;;4.23;3.83;;;33.40;99.90;;;;;;5040768;28;20486;-64
2022/06/30 12:44:54;;;;;;;6.20;4.03;;;33.70;99.90;;;;;;5040810;28;20458;-64
2022/06/30 12:47:23;;;;;;;5.47;4.97;;;33.60;99.90;;;;;;5040088;28;20504;-63
2022/06/30 12:49:50;;;;;;;4.57;4.17;;;34.10;99.90;;;;;;5040524;28;20480;-64
2022/06/30 12:52:21;;;;;;;4.63;4.23;;;34.00;99.90;;;;;;5040090;28;20454;-64
2022/06/30 12:54:54;;;;;;;4.77;4.30;;;34.50;99.90;;;;;;5040126;28;20464;-63
2022/06/30 12:57:23;;;;;;;5.07;4.67;;;32.70;99.90;;;;;;5039143;28;20486;-63
2022/06/30 12:59:54;;;;;;;4.37;4.00;;;32.50;99.90;;;;;;5040308;28;20880;-64
2022/06/30 13:02:22;;;;;;;4.30;4.00;;;33.50;99.90;;;;;;5039698;28;20490;-63
2022/06/30 13:04:55;;;;;;;4.70;4.40;;;33.80;99.90;;;;;;5039742;28;20552;-63
2022/06/30 13:07:31;;;;;;;4.80;4.40;;;34.70;99.90;;;;;;5039701;28;20520;-63
2022/06/30 13:10:01;;;;;;;4.80;4.40;;;35.30;99.90;;;;;;5039639;28;20897;-63
2022/06/30 13:12:32;;;;;;;7.07;4.83;;;34.80;99.90;;;;;;5039615;28;20546;-63
2022/06/30 13:14:59;;;;;;;4.53;4.20;;;33.70;99.90;;;;;;5039590;28;20488;-64
2022/06/30 13:17:30;;;;;;;5.37;4.87;;;33.70;99.90;;;;;;5039879;28;20554;-63